sensor_id;sensor_type;location;lat;lon;timestamp;P1;durP1;ratioP1;P2;durP2;ratioP2
3573;SDS011;1801;51.050;6.246;2022-10-22T00:00:12;6.73;;;4.70;;
3573;SDS011;1801;51.050;6.246;2022-10-22T00:02:37;9.53;;;4.17;;
3573;SDS011;1801;51.050;6.246;2022-10-22T00:05:03;12.70;;;5.50;;
3573;SDS011;1801;51.050;6.246;2022-10-22T00:07:28;13.10;;;4.00;;
3573;SDS011;1801;51.050;6.246;2022-10-22T00:09:54;7.67;;;5.23;;
3573;SDS011;1801;51.050;6.246;2022-10-22T00:12:19;9.13;;;4.60;;
3573;SDS011;1801;51.050;6.246;2022-10-22T00:14:44;12.17;;;5.50;;
3573;SDS011;1801;51.050;6.246;2022-10-22T00:17:09;17.50;;;4.03;;
3573;SDS011;1801;51.050;6.246;2022-10-22T00:19:35;7.80;;;3.80;;
3573;SDS011;1801;51.050;6.246;2022-10-22T00:22:00;13.77;;;3.87;;
3573;SDS011;1801;51.050;6.246;2022-10-22T00:24:29;13.90;;;4.73;;
3573;SDS011;1801;51.050;6.246;2022-10-22T00:26:54;6.90;;;4.03;;
3573;SDS011;1801;51.050;6.246;2022-10-22T00:29:19;8.53;;;4.00;;
3573;SDS011;1801;51.050;6.246;2022-10-22T00:31:45;6.20;;;3.80;;
3573;SDS011;1801;51.050;6.246;2022-10-22T00:34:14;18.43;;;4.17;;
3573;SDS011;1801;51.050;6.246;2022-10-22T00:36:39;7.30;;;3.77;;
3573;SDS011;1801;51.050;6.246;2022-10-22T00:39:04;10.17;;;4.63;;
3573;SDS011;1801;51.050;6.246;2022-10-22T00:41:29;7.27;;;3.47;;
3573;SDS011;1801;51.050;6.246;2022-10-22T00:43:56;9.07;;;4.47;;
3573;SDS011;1801;51.050;6.246;2022-10-22T00:46:22;21.07;;;4.43;;
3573;SDS011;1801;51.050;6.246;2022-10-22T00:48:47;8.73;;;3.73;;
3573;SDS011;1801;51.050;6.246;2022-10-22T00:51:12;13.83;;;4.77;;
3573;SDS011;1801;51.050;6.246;2022-10-22T00:53:44;12.13;;;4.80;;
3573;SDS011;1801;51.050;6.246;2022-10-22T00:56:11;13.57;;;4.50;;
3573;SDS011;1801;51.050;6.246;2022-10-22T00:58:38;9.67;;;5.00;;
3573;SDS011;1801;51.050;6.246;2022-10-22T01:01:05;8.63;;;4.60;;
3573;SDS011;1801;51.050;6.246;2022-10-22T01:03:33;7.83;;;3.83;;
3573;SDS011;1801;51.050;6.246;2022-10-22T01:05:58;10.50;;;3.73;;
3573;SDS011;1801;51.050;6.246;2022-10-22T01:08:26;8.83;;;3.13;;
3573;SDS011;1801;51.050;6.246;2022-10-22T01:10:54;13.70;;;4.77;;
3573;SDS011;1801;51.050;6.246;2022-10-22T01:15:53;8.50;;;4.20;;
3573;SDS011;1801;51.050;6.246;2022-10-22T01:18:23;8.30;;;3.97;;
3573;SDS011;1801;51.050;6.246;2022-10-22T01:23:45;10.90;;;4.50;;
3573;SDS011;1801;51.050;6.246;2022-10-22T01:28:53;12.23;;;4.30;;
3573;SDS011;1801;51.050;6.246;2022-10-22T01:31:22;7.87;;;3.83;;
3573;SDS011;1801;51.050;6.246;2022-10-22T01:33:48;10.90;;;4.33;;
3573;SDS011;1801;51.050;6.246;2022-10-22T01:36:13;10.30;;;4.03;;
3573;SDS011;1801;51.050;6.246;2022-10-22T01:38:39;9.50;;;4.10;;
3573;SDS011;1801;51.050;6.246;2022-10-22T01:41:05;11.00;;;4.60;;
3573;SDS011;1801;51.050;6.246;2022-10-22T01:43:31;10.33;;;3.60;;
3573;SDS011;1801;51.050;6.246;2022-10-22T01:45:57;11.87;;;4.70;;
3573;SDS011;1801;51.050;6.246;2022-10-22T01:48:32;8.33;;;4.30;;
3573;SDS011;1801;51.050;6.246;2022-10-22T01:51:12;5.47;;;3.50;;
3573;SDS011;1801;51.050;6.246;2022-10-22T01:53:49;11.37;;;5.57;;
3573;SDS011;1801;51.050;6.246;2022-10-22T01:56:17;12.00;;;4.07;;
3573;SDS011;1801;51.050;6.246;2022-10-22T02:04:00;13.30;;;4.93;;
3573;SDS011;1801;51.050;6.246;2022-10-22T02:06:25;13.30;;;5.23;;
3573;SDS011;1801;51.050;6.246;2022-10-22T02:08:51;15.20;;;5.60;;
3573;SDS011;1801;51.050;6.246;2022-10-22T02:11:18;11.27;;;5.60;;
3573;SDS011;1801;51.050;6.246;2022-10-22T02:13:44;14.10;;;5.00;;
3573;SDS011;1801;51.050;6.246;2022-10-22T02:16:11;17.90;;;5.50;;
3573;SDS011;1801;51.050;6.246;2022-10-22T02:18:39;17.30;;;5.50;;
3573;SDS011;1801;51.050;6.246;2022-10-22T02:21:05;14.80;;;5.00;;
3573;SDS011;1801;51.050;6.246;2022-10-22T02:23:31;10.07;;;4.47;;
3573;SDS011;1801;51.050;6.246;2022-10-22T02:25:59;16.50;;;5.03;;
3573;SDS011;1801;51.050;6.246;2022-10-22T02:28:37;11.03;;;6.07;;
3573;SDS011;1801;51.050;6.246;2022-10-22T02:31:05;13.30;;;5.73;;
3573;SDS011;1801;51.050;6.246;2022-10-22T02:33:33;13.67;;;5.30;;
3573;SDS011;1801;51.050;6.246;2022-10-22T02:36:00;12.83;;;5.20;;
3573;SDS011;1801;51.050;6.246;2022-10-22T02:38:26;9.70;;;5.90;;
3573;SDS011;1801;51.050;6.246;2022-10-22T02:40:52;12.47;;;6.70;;
3573;SDS011;1801;51.050;6.246;2022-10-22T02:43:17;15.63;;;7.63;;
3573;SDS011;1801;51.050;6.246;2022-10-22T02:45:43;15.60;;;6.63;;
3573;SDS011;1801;51.050;6.246;2022-10-22T02:48:08;14.63;;;6.27;;
3573;SDS011;1801;51.050;6.246;2022-10-22T02:50:33;8.27;;;5.30;;
3573;SDS011;1801;51.050;6.246;2022-10-22T02:52:58;8.60;;;5.13;;
3573;SDS011;1801;51.050;6.246;2022-10-22T02:55:24;11.43;;;5.63;;
3573;SDS011;1801;51.050;6.246;2022-10-22T02:57:49;15.03;;;5.30;;
3573;SDS011;1801;51.050;6.246;2022-10-22T03:00:14;7.93;;;5.00;;
3573;SDS011;1801;51.050;6.246;2022-10-22T03:02:40;9.03;;;4.63;;
3573;SDS011;1801;51.050;6.246;2022-10-22T03:05:05;12.57;;;4.80;;
3573;SDS011;1801;51.050;6.246;2022-10-22T03:07:30;11.30;;;5.20;;
3573;SDS011;1801;51.050;6.246;2022-10-22T03:09:55;9.27;;;5.47;;
3573;SDS011;1801;51.050;6.246;2022-10-22T03:12:20;12.47;;;4.50;;
3573;SDS011;1801;51.050;6.246;2022-10-22T03:14:46;9.27;;;5.63;;
3573;SDS011;1801;51.050;6.246;2022-10-22T03:17:11;16.07;;;6.23;;
3573;SDS011;1801;51.050;6.246;2022-10-22T03:19:36;9.37;;;5.97;;
3573;SDS011;1801;51.050;6.246;2022-10-22T03:22:02;7.40;;;4.83;;
3573;SDS011;1801;51.050;6.246;2022-10-22T03:24:35;13.67;;;6.13;;
3573;SDS011;1801;51.050;6.246;2022-10-22T03:27:01;13.30;;;5.60;;
3573;SDS011;1801;51.050;6.246;2022-10-22T03:29:26;9.27;;;5.73;;
3573;SDS011;1801;51.050;6.246;2022-10-22T03:31:52;10.23;;;5.63;;
3573;SDS011;1801;51.050;6.246;2022-10-22T03:34:18;12.90;;;6.43;;
3573;SDS011;1801;51.050;6.246;2022-10-22T03:36:43;8.40;;;5.17;;
3573;SDS011;1801;51.050;6.246;2022-10-22T03:39:09;12.97;;;5.33;;
3573;SDS011;1801;51.050;6.246;2022-10-22T03:41:36;11.17;;;5.90;;
3573;SDS011;1801;51.050;6.246;2022-10-22T03:44:02;10.23;;;5.20;;
3573;SDS011;1801;51.050;6.246;2022-10-22T03:46:27;16.00;;;7.00;;
3573;SDS011;1801;51.050;6.246;2022-10-22T03:48:52;15.23;;;5.90;;
3573;SDS011;1801;51.050;6.246;2022-10-22T03:51:17;11.63;;;4.53;;
3573;SDS011;1801;51.050;6.246;2022-10-22T03:53:43;24.50;;;5.90;;
3573;SDS011;1801;51.050;6.246;2022-10-22T03:56:08;8.90;;;5.50;;
3573;SDS011;1801;51.050;6.246;2022-10-22T03:58:34;11.17;;;5.87;;
3573;SDS011;1801;51.050;6.246;2022-10-22T04:01:03;16.83;;;8.20;;
3573;SDS011;1801;51.050;6.246;2022-10-22T04:03:29;15.97;;;7.70;;
3573;SDS011;1801;51.050;6.246;2022-10-22T04:05:54;22.03;;;9.63;;
3573;SDS011;1801;51.050;6.246;2022-10-22T04:08:24;15.70;;;7.17;;
3573;SDS011;1801;51.050;6.246;2022-10-22T04:10:50;13.60;;;5.60;;
3573;SDS011;1801;51.050;6.246;2022-10-22T04:13:15;8.97;;;4.67;;
3573;SDS011;1801;51.050;6.246;2022-10-22T04:15:40;10.83;;;5.17;;
3573;SDS011;1801;51.050;6.246;2022-10-22T04:18:05;13.40;;;5.87;;
3573;SDS011;1801;51.050;6.246;2022-10-22T04:20:31;16.83;;;4.33;;
3573;SDS011;1801;51.050;6.246;2022-10-22T04:22:56;16.07;;;6.00;;
3573;SDS011;1801;51.050;6.246;2022-10-22T04:25:21;8.50;;;5.30;;
3573;SDS011;1801;51.050;6.246;2022-10-22T04:27:46;14.23;;;5.37;;
3573;SDS011;1801;51.050;6.246;2022-10-22T04:30:11;12.87;;;5.57;;
3573;SDS011;1801;51.050;6.246;2022-10-22T04:32:37;26.33;;;6.30;;
3573;SDS011;1801;51.050;6.246;2022-10-22T04:35:02;12.37;;;5.20;;
3573;SDS011;1801;51.050;6.246;2022-10-22T04:37:27;12.13;;;5.17;;
3573;SDS011;1801;51.050;6.246;2022-10-22T04:39:53;12.40;;;5.80;;
3573;SDS011;1801;51.050;6.246;2022-10-22T04:42:18;15.47;;;5.10;;
3573;SDS011;1801;51.050;6.246;2022-10-22T04:44:43;14.10;;;5.83;;
3573;SDS011;1801;51.050;6.246;2022-10-22T04:47:08;16.23;;;7.20;;
3573;SDS011;1801;51.050;6.246;2022-10-22T04:49:33;10.90;;;5.40;;
3573;SDS011;1801;51.050;6.246;2022-10-22T04:51:58;19.53;;;6.27;;
3573;SDS011;1801;51.050;6.246;2022-10-22T04:54:24;11.50;;;6.83;;
3573;SDS011;1801;51.050;6.246;2022-10-22T04:56:49;10.70;;;6.17;;
3573;SDS011;1801;51.050;6.246;2022-10-22T04:59:14;15.57;;;6.27;;
3573;SDS011;1801;51.050;6.246;2022-10-22T05:01:41;12.80;;;6.67;;
3573;SDS011;1801;51.050;6.246;2022-10-22T05:04:07;11.87;;;5.80;;
3573;SDS011;1801;51.050;6.246;2022-10-22T05:06:33;12.70;;;6.60;;
3573;SDS011;1801;51.050;6.246;2022-10-22T05:09:00;12.57;;;5.50;;
3573;SDS011;1801;51.050;6.246;2022-10-22T05:11:30;9.80;;;5.43;;
3573;SDS011;1801;51.050;6.246;2022-10-22T05:13:56;9.70;;;5.23;;
3573;SDS011;1801;51.050;6.246;2022-10-22T05:16:21;11.17;;;5.70;;
3573;SDS011;1801;51.050;6.246;2022-10-22T05:18:46;11.30;;;5.63;;
3573;SDS011;1801;51.050;6.246;2022-10-22T05:21:15;11.23;;;5.00;;
3573;SDS011;1801;51.050;6.246;2022-10-22T05:23:41;13.30;;;4.47;;
3573;SDS011;1801;51.050;6.246;2022-10-22T05:26:07;10.70;;;5.20;;
3573;SDS011;1801;51.050;6.246;2022-10-22T05:28:32;16.43;;;5.60;;
3573;SDS011;1801;51.050;6.246;2022-10-22T05:30:58;7.77;;;4.80;;
3573;SDS011;1801;51.050;6.246;2022-10-22T05:33:23;7.50;;;5.20;;
3573;SDS011;1801;51.050;6.246;2022-10-22T05:35:49;9.97;;;4.60;;
3573;SDS011;1801;51.050;6.246;2022-10-22T05:38:15;8.50;;;4.30;;
3573;SDS011;1801;51.050;6.246;2022-10-22T05:40:40;8.80;;;4.30;;
3573;SDS011;1801;51.050;6.246;2022-10-22T05:43:05;18.43;;;5.53;;
3573;SDS011;1801;51.050;6.246;2022-10-22T05:45:30;7.03;;;3.47;;
3573;SDS011;1801;51.050;6.246;2022-10-22T05:47:55;7.37;;;3.87;;
3573;SDS011;1801;51.050;6.246;2022-10-22T05:50:21;6.57;;;3.47;;
3573;SDS011;1801;51.050;6.246;2022-10-22T05:52:46;7.43;;;3.53;;
3573;SDS011;1801;51.050;6.246;2022-10-22T05:55:11;11.60;;;3.67;;
3573;SDS011;1801;51.050;6.246;2022-10-22T05:57:37;5.00;;;3.53;;
3573;SDS011;1801;51.050;6.246;2022-10-22T06:00:03;5.80;;;3.30;;
3573;SDS011;1801;51.050;6.246;2022-10-22T06:02:28;8.60;;;3.33;;
3573;SDS011;1801;51.050;6.246;2022-10-22T06:04:53;5.33;;;2.57;;
3573;SDS011;1801;51.050;6.246;2022-10-22T06:07:19;6.13;;;2.90;;
3573;SDS011;1801;51.050;6.246;2022-10-22T06:09:44;11.33;;;2.83;;
3573;SDS011;1801;51.050;6.246;2022-10-22T06:12:11;14.60;;;3.77;;
3573;SDS011;1801;51.050;6.246;2022-10-22T06:14:37;15.20;;;3.27;;
3573;SDS011;1801;51.050;6.246;2022-10-22T06:17:02;5.00;;;2.80;;
3573;SDS011;1801;51.050;6.246;2022-10-22T06:19:28;9.93;;;2.23;;
3573;SDS011;1801;51.050;6.246;2022-10-22T06:21:55;4.80;;;2.00;;
3573;SDS011;1801;51.050;6.246;2022-10-22T06:24:20;12.87;;;2.80;;
3573;SDS011;1801;51.050;6.246;2022-10-22T06:26:48;8.33;;;2.03;;
3573;SDS011;1801;51.050;6.246;2022-10-22T06:29:13;4.83;;;1.97;;
3573;SDS011;1801;51.050;6.246;2022-10-22T06:31:38;8.17;;;2.07;;
3573;SDS011;1801;51.050;6.246;2022-10-22T06:34:04;9.80;;;2.57;;
3573;SDS011;1801;51.050;6.246;2022-10-22T06:36:30;12.00;;;2.17;;
3573;SDS011;1801;51.050;6.246;2022-10-22T06:38:55;5.67;;;2.40;;
3573;SDS011;1801;51.050;6.246;2022-10-22T06:41:20;2.30;;;1.83;;
3573;SDS011;1801;51.050;6.246;2022-10-22T06:43:46;5.80;;;2.93;;
3573;SDS011;1801;51.050;6.246;2022-10-22T06:46:11;3.10;;;1.73;;
3573;SDS011;1801;51.050;6.246;2022-10-22T06:48:37;3.77;;;2.23;;
3573;SDS011;1801;51.050;6.246;2022-10-22T06:51:04;9.13;;;2.47;;
3573;SDS011;1801;51.050;6.246;2022-10-22T06:53:30;8.80;;;2.87;;
3573;SDS011;1801;51.050;6.246;2022-10-22T06:55:55;4.60;;;1.93;;
3573;SDS011;1801;51.050;6.246;2022-10-22T06:58:20;9.43;;;2.50;;
3573;SDS011;1801;51.050;6.246;2022-10-22T07:00:46;5.70;;;1.87;;
3573;SDS011;1801;51.050;6.246;2022-10-22T07:03:11;7.90;;;2.00;;
3573;SDS011;1801;51.050;6.246;2022-10-22T07:05:37;12.13;;;2.50;;
3573;SDS011;1801;51.050;6.246;2022-10-22T07:08:03;4.73;;;2.20;;
3573;SDS011;1801;51.050;6.246;2022-10-22T07:10:28;5.60;;;2.10;;
3573;SDS011;1801;51.050;6.246;2022-10-22T07:12:53;13.03;;;2.20;;
3573;SDS011;1801;51.050;6.246;2022-10-22T07:15:18;9.77;;;3.10;;
3573;SDS011;1801;51.050;6.246;2022-10-22T07:17:43;7.50;;;2.20;;
3573;SDS011;1801;51.050;6.246;2022-10-22T07:20:09;8.27;;;1.83;;
3573;SDS011;1801;51.050;6.246;2022-10-22T07:22:34;11.47;;;2.50;;
3573;SDS011;1801;51.050;6.246;2022-10-22T07:24:59;9.33;;;2.23;;
3573;SDS011;1801;51.050;6.246;2022-10-22T07:27:24;3.40;;;1.70;;
3573;SDS011;1801;51.050;6.246;2022-10-22T07:29:50;6.50;;;1.60;;
3573;SDS011;1801;51.050;6.246;2022-10-22T07:32:15;10.83;;;1.50;;
3573;SDS011;1801;51.050;6.246;2022-10-22T07:34:40;12.20;;;1.90;;
3573;SDS011;1801;51.050;6.246;2022-10-22T07:37:05;6.07;;;1.87;;
3573;SDS011;1801;51.050;6.246;2022-10-22T07:39:30;11.27;;;1.87;;
3573;SDS011;1801;51.050;6.246;2022-10-22T07:41:56;4.53;;;1.83;;
3573;SDS011;1801;51.050;6.246;2022-10-22T07:44:21;5.10;;;1.80;;
3573;SDS011;1801;51.050;6.246;2022-10-22T07:46:46;8.83;;;1.80;;
3573;SDS011;1801;51.050;6.246;2022-10-22T07:49:11;7.03;;;1.80;;
3573;SDS011;1801;51.050;6.246;2022-10-22T07:51:36;4.80;;;2.10;;
3573;SDS011;1801;51.050;6.246;2022-10-22T07:54:02;8.80;;;1.93;;
3573;SDS011;1801;51.050;6.246;2022-10-22T07:56:28;4.33;;;1.77;;
3573;SDS011;1801;51.050;6.246;2022-10-22T07:58:53;6.23;;;1.50;;
3573;SDS011;1801;51.050;6.246;2022-10-22T08:01:18;6.60;;;2.17;;
3573;SDS011;1801;51.050;6.246;2022-10-22T08:03:43;9.40;;;2.63;;
3573;SDS011;1801;51.050;6.246;2022-10-22T08:06:09;4.87;;;1.80;;
3573;SDS011;1801;51.050;6.246;2022-10-22T08:08:36;5.20;;;1.50;;
3573;SDS011;1801;51.050;6.246;2022-10-22T08:11:01;3.13;;;1.50;;
3573;SDS011;1801;51.050;6.246;2022-10-22T08:13:27;9.40;;;2.33;;
3573;SDS011;1801;51.050;6.246;2022-10-22T08:15:54;5.70;;;1.80;;
3573;SDS011;1801;51.050;6.246;2022-10-22T08:18:19;6.70;;;2.10;;
3573;SDS011;1801;51.050;6.246;2022-10-22T08:20:44;4.30;;;1.60;;
3573;SDS011;1801;51.050;6.246;2022-10-22T08:23:10;7.60;;;1.50;;
3573;SDS011;1801;51.050;6.246;2022-10-22T08:25:35;5.60;;;1.60;;
3573;SDS011;1801;51.050;6.246;2022-10-22T08:28:01;9.43;;;2.77;;
3573;SDS011;1801;51.050;6.246;2022-10-22T08:30:26;13.10;;;2.23;;
3573;SDS011;1801;51.050;6.246;2022-10-22T08:32:53;8.20;;;2.00;;
3573;SDS011;1801;51.050;6.246;2022-10-22T08:35:18;5.53;;;1.57;;
3573;SDS011;1801;51.050;6.246;2022-10-22T08:37:44;4.53;;;2.73;;
3573;SDS011;1801;51.050;6.246;2022-10-22T08:40:09;6.47;;;2.00;;
3573;SDS011;1801;51.050;6.246;2022-10-22T08:43:17;9.30;;;2.07;;
3573;SDS011;1801;51.050;6.246;2022-10-22T08:45:46;6.60;;;1.70;;
3573;SDS011;1801;51.050;6.246;2022-10-22T08:50:44;5.27;;;1.57;;
3573;SDS011;1801;51.050;6.246;2022-10-22T08:53:14;10.00;;;1.80;;
3573;SDS011;1801;51.050;6.246;2022-10-22T08:55:41;12.40;;;2.50;;
3573;SDS011;1801;51.050;6.246;2022-10-22T09:00:55;7.30;;;1.70;;
3573;SDS011;1801;51.050;6.246;2022-10-22T09:06:40;6.63;;;1.90;;
3573;SDS011;1801;51.050;6.246;2022-10-22T09:08:58;1.80;;;1.33;;
3573;SDS011;1801;51.050;6.246;2022-10-22T09:11:29;2.83;;;1.47;;
3573;SDS011;1801;51.050;6.246;2022-10-22T09:13:55;6.90;;;2.70;;
3573;SDS011;1801;51.050;6.246;2022-10-22T09:16:27;4.83;;;1.80;;
3573;SDS011;1801;51.050;6.246;2022-10-22T09:26:24;14.33;;;2.03;;
3573;SDS011;1801;51.050;6.246;2022-10-22T09:28:49;7.17;;;2.10;;
3573;SDS011;1801;51.050;6.246;2022-10-22T09:31:15;4.50;;;1.37;;
3573;SDS011;1801;51.050;6.246;2022-10-22T09:33:41;8.90;;;1.90;;
3573;SDS011;1801;51.050;6.246;2022-10-22T09:36:06;8.47;;;2.00;;
3573;SDS011;1801;51.050;6.246;2022-10-22T09:38:44;2.97;;;2.13;;
3573;SDS011;1801;51.050;6.246;2022-10-22T09:41:10;5.33;;;1.50;;
3573;SDS011;1801;51.050;6.246;2022-10-22T09:43:35;5.53;;;1.80;;
3573;SDS011;1801;51.050;6.246;2022-10-22T09:46:01;11.87;;;1.77;;
3573;SDS011;1801;51.050;6.246;2022-10-22T09:48:36;3.37;;;1.10;;
3573;SDS011;1801;51.050;6.246;2022-10-22T09:51:04;5.90;;;1.47;;
3573;SDS011;1801;51.050;6.246;2022-10-22T09:54:16;6.77;;;1.60;;
3573;SDS011;1801;51.050;6.246;2022-10-22T09:58:48;11.07;;;2.37;;
3573;SDS011;1801;51.050;6.246;2022-10-22T10:01:16;9.13;;;1.37;;
3573;SDS011;1801;51.050;6.246;2022-10-22T10:03:42;5.03;;;2.53;;
3573;SDS011;1801;51.050;6.246;2022-10-22T10:06:07;5.73;;;1.43;;
3573;SDS011;1801;51.050;6.246;2022-10-22T10:08:32;7.50;;;1.50;;
3573;SDS011;1801;51.050;6.246;2022-10-22T10:11:12;5.00;;;2.30;;
3573;SDS011;1801;51.050;6.246;2022-10-22T10:13:57;4.43;;;1.60;;
3573;SDS011;1801;51.050;6.246;2022-10-22T10:21:29;7.87;;;1.93;;
3573;SDS011;1801;51.050;6.246;2022-10-22T10:23:59;5.57;;;2.00;;
3573;SDS011;1801;51.050;6.246;2022-10-22T10:29:08;8.03;;;1.60;;
3573;SDS011;1801;51.050;6.246;2022-10-22T10:31:50;3.50;;;1.30;;
3573;SDS011;1801;51.050;6.246;2022-10-22T10:34:23;10.00;;;1.50;;
3573;SDS011;1801;51.050;6.246;2022-10-22T10:37:07;7.83;;;1.30;;
3573;SDS011;1801;51.050;6.246;2022-10-22T10:42:13;19.73;;;1.80;;
3573;SDS011;1801;51.050;6.246;2022-10-22T10:44:56;8.07;;;1.87;;
3573;SDS011;1801;51.050;6.246;2022-10-22T10:47:32;3.47;;;1.63;;
3573;SDS011;1801;51.050;6.246;2022-10-22T10:57:54;2.70;;;1.10;;
3573;SDS011;1801;51.050;6.246;2022-10-22T11:00:24;5.63;;;1.20;;
3573;SDS011;1801;51.050;6.246;2022-10-22T11:05:36;5.07;;;1.63;;
3573;SDS011;1801;51.050;6.246;2022-10-22T11:10:53;3.50;;;1.40;;
3573;SDS011;1801;51.050;6.246;2022-10-22T11:16:02;3.03;;;1.47;;
3573;SDS011;1801;51.050;6.246;2022-10-22T11:18:36;5.47;;;1.77;;
3573;SDS011;1801;51.050;6.246;2022-10-22T11:29:16;4.90;;;1.40;;
3573;SDS011;1801;51.050;6.246;2022-10-22T11:31:43;5.57;;;1.50;;
3573;SDS011;1801;51.050;6.246;2022-10-22T11:34:17;2.50;;;1.10;;
3573;SDS011;1801;51.050;6.246;2022-10-22T11:36:43;6.80;;;1.40;;
3573;SDS011;1801;51.050;6.246;2022-10-22T11:39:27;4.53;;;1.27;;
3573;SDS011;1801;51.050;6.246;2022-10-22T11:41:53;9.73;;;1.70;;
3573;SDS011;1801;51.050;6.246;2022-10-22T11:44:20;1.83;;;1.10;;
3573;SDS011;1801;51.050;6.246;2022-10-22T11:49:18;2.30;;;0.90;;
3573;SDS011;1801;51.050;6.246;2022-10-22T11:51:44;3.90;;;1.13;;
3573;SDS011;1801;51.050;6.246;2022-10-22T11:57:38;6.80;;;2.00;;
3573;SDS011;1801;51.050;6.246;2022-10-22T12:00:00;4.00;;;1.40;;
3573;SDS011;1801;51.050;6.246;2022-10-22T12:04:53;2.80;;;1.20;;
3573;SDS011;1801;51.050;6.246;2022-10-22T12:10:20;4.93;;;1.10;;
3573;SDS011;1801;51.050;6.246;2022-10-22T12:12:51;2.33;;;1.10;;
3573;SDS011;1801;51.050;6.246;2022-10-22T12:15:20;4.87;;;1.13;;
3573;SDS011;1801;51.050;6.246;2022-10-22T12:17:47;3.40;;;1.07;;
3573;SDS011;1801;51.050;6.246;2022-10-22T12:20:12;4.93;;;1.10;;
3573;SDS011;1801;51.050;6.246;2022-10-22T12:22:38;3.60;;;1.00;;
3573;SDS011;1801;51.050;6.246;2022-10-22T12:25:22;11.43;;;1.80;;
3573;SDS011;1801;51.050;6.246;2022-10-22T12:27:49;3.03;;;1.10;;
3573;SDS011;1801;51.050;6.246;2022-10-22T12:30:19;1.40;;;0.80;;
3573;SDS011;1801;51.050;6.246;2022-10-22T12:32:46;5.60;;;1.20;;
3573;SDS011;1801;51.050;6.246;2022-10-22T12:35:16;3.40;;;1.20;;
3573;SDS011;1801;51.050;6.246;2022-10-22T12:37:41;1.70;;;1.00;;
3573;SDS011;1801;51.050;6.246;2022-10-22T12:40:20;7.03;;;1.50;;
3573;SDS011;1801;51.050;6.246;2022-10-22T12:42:46;5.33;;;2.03;;
3573;SDS011;1801;51.050;6.246;2022-10-22T12:45:11;6.30;;;1.03;;
3573;SDS011;1801;51.050;6.246;2022-10-22T12:47:37;5.17;;;1.40;;
3573;SDS011;1801;51.050;6.246;2022-10-22T12:50:02;2.67;;;1.10;;
3573;SDS011;1801;51.050;6.246;2022-10-22T12:52:27;4.53;;;1.10;;
3573;SDS011;1801;51.050;6.246;2022-10-22T12:54:54;8.10;;;1.20;;
3573;SDS011;1801;51.050;6.246;2022-10-22T12:57:20;2.53;;;1.27;;
3573;SDS011;1801;51.050;6.246;2022-10-22T12:59:47;5.47;;;1.07;;
3573;SDS011;1801;51.050;6.246;2022-10-22T13:04:41;3.77;;;1.30;;
3573;SDS011;1801;51.050;6.246;2022-10-22T13:09:38;3.13;;;1.03;;
3573;SDS011;1801;51.050;6.246;2022-10-22T13:12:05;5.30;;;1.50;;
3573;SDS011;1801;51.050;6.246;2022-10-22T13:14:31;3.67;;;1.30;;
3573;SDS011;1801;51.050;6.246;2022-10-22T13:19:39;4.73;;;1.20;;
3573;SDS011;1801;51.050;6.246;2022-10-22T13:30:13;5.17;;;1.00;;
3573;SDS011;1801;51.050;6.246;2022-10-22T13:32:41;1.87;;;0.93;;
3573;SDS011;1801;51.050;6.246;2022-10-22T13:35:08;3.50;;;1.10;;
3573;SDS011;1801;51.050;6.246;2022-10-22T13:37:36;5.10;;;1.23;;
3573;SDS011;1801;51.050;6.246;2022-10-22T13:40:07;5.40;;;0.93;;
3573;SDS011;1801;51.050;6.246;2022-10-22T13:42:34;4.90;;;1.27;;
3573;SDS011;1801;51.050;6.246;2022-10-22T13:45:00;2.87;;;0.97;;
3573;SDS011;1801;51.050;6.246;2022-10-22T13:47:26;5.57;;;0.80;;
3573;SDS011;1801;51.050;6.246;2022-10-22T13:49:52;4.40;;;0.90;;
3573;SDS011;1801;51.050;6.246;2022-10-22T13:52:21;2.90;;;1.20;;
3573;SDS011;1801;51.050;6.246;2022-10-22T13:54:49;5.40;;;1.20;;
3573;SDS011;1801;51.050;6.246;2022-10-22T13:57:14;3.57;;;0.90;;
3573;SDS011;1801;51.050;6.246;2022-10-22T13:59:40;1.30;;;0.83;;
3573;SDS011;1801;51.050;6.246;2022-10-22T14:02:08;4.50;;;1.23;;
3573;SDS011;1801;51.050;6.246;2022-10-22T14:04:34;5.40;;;0.93;;
3573;SDS011;1801;51.050;6.246;2022-10-22T14:07:00;7.73;;;1.20;;
3573;SDS011;1801;51.050;6.246;2022-10-22T14:09:26;4.60;;;1.30;;
3573;SDS011;1801;51.050;6.246;2022-10-22T14:11:51;2.50;;;1.27;;
3573;SDS011;1801;51.050;6.246;2022-10-22T14:14:16;5.73;;;1.37;;
3573;SDS011;1801;51.050;6.246;2022-10-22T14:16:42;4.77;;;1.27;;
3573;SDS011;1801;51.050;6.246;2022-10-22T14:19:09;6.67;;;1.30;;
3573;SDS011;1801;51.050;6.246;2022-10-22T14:21:38;3.17;;;1.23;;
3573;SDS011;1801;51.050;6.246;2022-10-22T14:24:03;4.20;;;1.50;;
3573;SDS011;1801;51.050;6.246;2022-10-22T14:26:29;2.07;;;1.60;;
3573;SDS011;1801;51.050;6.246;2022-10-22T14:28:56;4.03;;;1.37;;
3573;SDS011;1801;51.050;6.246;2022-10-22T14:31:22;2.10;;;1.10;;
3573;SDS011;1801;51.050;6.246;2022-10-22T14:33:47;2.20;;;0.90;;
3573;SDS011;1801;51.050;6.246;2022-10-22T14:36:14;4.70;;;1.27;;
3573;SDS011;1801;51.050;6.246;2022-10-22T14:38:40;4.97;;;1.37;;
3573;SDS011;1801;51.050;6.246;2022-10-22T14:41:13;3.20;;;1.90;;
3573;SDS011;1801;51.050;6.246;2022-10-22T14:43:39;7.80;;;1.53;;
3573;SDS011;1801;51.050;6.246;2022-10-22T14:46:04;4.50;;;1.40;;
3573;SDS011;1801;51.050;6.246;2022-10-22T14:48:29;2.60;;;1.07;;
3573;SDS011;1801;51.050;6.246;2022-10-22T14:50:54;2.23;;;1.07;;
3573;SDS011;1801;51.050;6.246;2022-10-22T14:53:19;2.77;;;0.90;;
3573;SDS011;1801;51.050;6.246;2022-10-22T14:55:45;4.27;;;1.10;;
3573;SDS011;1801;51.050;6.246;2022-10-22T14:58:11;1.50;;;1.10;;
3573;SDS011;1801;51.050;6.246;2022-10-22T15:00:36;7.73;;;1.63;;
3573;SDS011;1801;51.050;6.246;2022-10-22T15:03:02;4.83;;;0.83;;
3573;SDS011;1801;51.050;6.246;2022-10-22T15:05:28;2.23;;;1.20;;
3573;SDS011;1801;51.050;6.246;2022-10-22T15:07:53;2.50;;;0.90;;
3573;SDS011;1801;51.050;6.246;2022-10-22T15:10:18;3.70;;;1.03;;
3573;SDS011;1801;51.050;6.246;2022-10-22T15:12:43;4.57;;;1.17;;
3573;SDS011;1801;51.050;6.246;2022-10-22T15:15:09;3.47;;;1.57;;
3573;SDS011;1801;51.050;6.246;2022-10-22T15:17:34;5.47;;;1.37;;
3573;SDS011;1801;51.050;6.246;2022-10-22T15:19:59;4.93;;;1.53;;
3573;SDS011;1801;51.050;6.246;2022-10-22T15:22:28;6.53;;;0.87;;
3573;SDS011;1801;51.050;6.246;2022-10-22T15:24:55;12.20;;;1.60;;
3573;SDS011;1801;51.050;6.246;2022-10-22T15:27:20;3.20;;;1.40;;
3573;SDS011;1801;51.050;6.246;2022-10-22T15:29:45;2.10;;;1.00;;
3573;SDS011;1801;51.050;6.246;2022-10-22T15:32:11;3.90;;;2.07;;
3573;SDS011;1801;51.050;6.246;2022-10-22T15:34:36;6.13;;;1.30;;
3573;SDS011;1801;51.050;6.246;2022-10-22T15:37:02;2.13;;;0.90;;
3573;SDS011;1801;51.050;6.246;2022-10-22T15:39:28;8.00;;;1.47;;
3573;SDS011;1801;51.050;6.246;2022-10-22T15:41:54;2.60;;;1.23;;
3573;SDS011;1801;51.050;6.246;2022-10-22T15:44:20;7.10;;;1.00;;
3573;SDS011;1801;51.050;6.246;2022-10-22T15:46:46;3.43;;;1.20;;
3573;SDS011;1801;51.050;6.246;2022-10-22T15:49:11;8.03;;;1.27;;
3573;SDS011;1801;51.050;6.246;2022-10-22T15:51:37;3.90;;;1.10;;
3573;SDS011;1801;51.050;6.246;2022-10-22T15:54:02;4.20;;;1.93;;
3573;SDS011;1801;51.050;6.246;2022-10-22T15:56:27;4.93;;;1.63;;
3573;SDS011;1801;51.050;6.246;2022-10-22T15:58:54;6.47;;;1.80;;
3573;SDS011;1801;51.050;6.246;2022-10-22T16:01:20;2.40;;;1.50;;
3573;SDS011;1801;51.050;6.246;2022-10-22T16:03:45;4.23;;;1.50;;
3573;SDS011;1801;51.050;6.246;2022-10-22T16:06:10;5.03;;;1.50;;
3573;SDS011;1801;51.050;6.246;2022-10-22T16:08:36;8.03;;;1.67;;
3573;SDS011;1801;51.050;6.246;2022-10-22T16:11:01;7.10;;;1.60;;
3573;SDS011;1801;51.050;6.246;2022-10-22T16:13:26;5.30;;;2.20;;
3573;SDS011;1801;51.050;6.246;2022-10-22T16:15:52;7.23;;;2.20;;
3573;SDS011;1801;51.050;6.246;2022-10-22T16:18:18;8.33;;;3.90;;
3573;SDS011;1801;51.050;6.246;2022-10-22T16:20:44;5.77;;;1.80;;
3573;SDS011;1801;51.050;6.246;2022-10-22T16:23:09;4.90;;;1.40;;
3573;SDS011;1801;51.050;6.246;2022-10-22T16:25:38;3.73;;;1.40;;
3573;SDS011;1801;51.050;6.246;2022-10-22T16:28:03;10.90;;;2.03;;
3573;SDS011;1801;51.050;6.246;2022-10-22T16:30:28;8.83;;;2.03;;
3573;SDS011;1801;51.050;6.246;2022-10-22T16:32:53;3.40;;;1.40;;
3573;SDS011;1801;51.050;6.246;2022-10-22T16:35:19;6.30;;;1.40;;
3573;SDS011;1801;51.050;6.246;2022-10-22T16:37:44;8.30;;;1.30;;
3573;SDS011;1801;51.050;6.246;2022-10-22T16:40:09;8.43;;;1.43;;